createdAt,value
2023-02-15T00:00:49.652Z,42.35
2023-02-15T00:03:18.512Z,39.53
2023-02-15T00:05:48.142Z,42.80
2023-02-15T00:08:16.706Z,46.05
2023-02-15T00:10:44.980Z,43.33
2023-02-15T00:13:13.540Z,41.15
2023-02-15T00:15:42.110Z,42.15
2023-02-15T00:18:12.405Z,41.50
2023-02-15T00:20:40.763Z,41.20
2023-02-15T00:23:10.791Z,43.60
2023-02-15T00:25:39.112Z,39.55
2023-02-15T00:28:11.957Z,33.72
2023-02-15T00:30:45.041Z,40.38
2023-02-15T00:33:13.593Z,33.47
2023-02-15T00:35:42.570Z,33.60
2023-02-15T00:38:13.672Z,35.88
2023-02-15T00:40:42.068Z,31.92
2023-02-15T00:43:10.492Z,21.42
2023-02-15T00:45:39.762Z,16.15
2023-02-15T00:48:08.064Z,18.48
2023-02-15T00:50:36.330Z,18.17
2023-02-15T00:53:05.214Z,17.70
2023-02-15T00:55:35.016Z,15.48
2023-02-15T00:58:05.461Z,15.00
2023-02-15T01:00:33.773Z,16.13
2023-02-15T01:03:02.188Z,14.07
2023-02-15T01:05:31.637Z,15.82
2023-02-15T01:08:00.005Z,19.55
2023-02-15T01:10:30.672Z,19.58
2023-02-15T01:13:00.443Z,18.67
2023-02-15T01:15:28.826Z,18.90
2023-02-15T01:17:57.223Z,17.40
2023-02-15T01:20:27.518Z,19.75
2023-02-15T01:22:59.101Z,16.98
2023-02-15T01:25:30.410Z,18.77
2023-02-15T01:28:00.020Z,17.98
2023-02-15T01:30:30.733Z,20.85
2023-02-15T01:32:59.229Z,16.50
2023-02-15T01:35:29.893Z,17.65
2023-02-15T01:37:58.712Z,18.30
2023-02-15T01:40:30.017Z,19.65
2023-02-15T01:42:59.926Z,18.40
2023-02-15T01:45:31.871Z,19.17
2023-02-15T01:48:03.086Z,19.48
2023-02-15T01:50:34.124Z,20.63
2023-02-15T01:53:05.896Z,18.88
2023-02-15T01:55:36.104Z,16.40
2023-02-15T01:58:06.028Z,21.13
2023-02-15T02:00:34.912Z,21.90
2023-02-15T02:03:04.170Z,21.05
2023-02-15T02:05:32.620Z,21.75
2023-02-15T02:08:04.197Z,22.70
2023-02-15T02:10:33.436Z,23.88
2023-02-15T02:13:02.753Z,24.55
2023-02-15T02:15:36.950Z,25.27
2023-02-15T02:18:12.637Z,25.27
2023-02-15T02:20:52.150Z,24.40
2023-02-15T02:23:34.446Z,25.25
2023-02-15T02:26:22.606Z,33.83
2023-02-15T02:29:06.822Z,29.27
2023-02-15T02:31:44.123Z,29.27
2023-02-15T02:34:19.508Z,30.08
2023-02-15T02:36:52.882Z,31.75
2023-02-15T02:39:26.428Z,34.50
2023-02-15T02:42:08.382Z,31.73
2023-02-15T02:44:43.886Z,29.63
2023-02-15T02:47:16.372Z,30.20
2023-02-15T02:49:46.597Z,25.35
2023-02-15T02:52:32.897Z,28.98
2023-02-15T02:55:01.963Z,31.40
2023-02-15T02:57:33.724Z,28.65
2023-02-15T03:00:09.488Z,30.73
2023-02-15T03:02:40.573Z,31.40
2023-02-15T03:05:12.532Z,35.58
2023-02-15T03:07:42.215Z,32.95
2023-02-15T03:10:12.363Z,29.40
2023-02-15T03:12:42.147Z,31.25
2023-02-15T03:15:12.648Z,27.63
2023-02-15T03:17:45.138Z,33.05
2023-02-15T03:20:17.042Z,33.92
2023-02-15T03:22:52.022Z,30.58
2023-02-15T03:25:25.062Z,32.28
2023-02-15T03:27:56.927Z,30.40
2023-02-15T03:30:25.450Z,30.30
2023-02-15T03:32:58.451Z,30.55
2023-02-15T03:35:29.528Z,28.70
2023-02-15T03:38:02.552Z,25.85
2023-02-15T03:41:01.420Z,28.42
2023-02-15T03:43:33.436Z,30.95
2023-02-15T03:46:06.842Z,28.95
2023-02-15T03:48:37.785Z,27.23
2023-02-15T03:51:28.234Z,25.95
2023-02-15T03:53:59.972Z,27.10
2023-02-15T03:56:30.726Z,24.95
2023-02-15T03:59:16.339Z,24.83
2023-02-15T04:01:59.123Z,24.55
2023-02-15T04:04:29.278Z,23.25
2023-02-15T04:06:58.962Z,23.00
2023-02-15T04:09:45.188Z,24.48
2023-02-15T04:12:13.705Z,22.95
2023-02-15T04:14:59.970Z,23.13
2023-02-15T04:17:28.272Z,22.02
2023-02-15T04:20:14.624Z,19.98
2023-02-15T04:23:02.092Z,19.40
2023-02-15T04:25:30.354Z,17.88
2023-02-15T04:27:58.723Z,19.85
2023-02-15T04:30:30.058Z,17.35
2023-02-15T04:32:58.785Z,21.23
2023-02-15T04:35:29.394Z,18.60
2023-02-15T04:37:58.962Z,21.85
2023-02-15T04:40:27.337Z,23.02
2023-02-15T04:42:55.554Z,20.77
2023-02-15T04:45:23.901Z,26.38
2023-02-15T04:47:52.256Z,22.88
2023-02-15T04:50:22.903Z,22.00
2023-02-15T04:52:51.248Z,24.33
2023-02-15T04:55:20.921Z,19.02
2023-02-15T04:57:49.206Z,21.20
2023-02-15T05:00:17.836Z,22.33
2023-02-15T05:02:50.578Z,21.67
2023-02-15T05:05:18.931Z,23.70
2023-02-15T05:07:47.623Z,23.98
2023-02-15T05:10:18.224Z,27.40
2023-02-15T05:12:48.141Z,24.60
2023-02-15T05:15:16.682Z,24.83
2023-02-15T05:17:45.012Z,27.13
2023-02-15T05:20:15.877Z,28.63
2023-02-15T05:22:48.772Z,27.02
2023-02-15T05:25:35.089Z,26.27
2023-02-15T05:28:22.562Z,24.60
2023-02-15T05:30:51.261Z,25.25
2023-02-15T05:33:19.775Z,25.83
2023-02-15T05:35:48.060Z,25.33
2023-02-15T05:38:16.763Z,18.83
2023-02-15T05:40:45.002Z,24.95
2023-02-15T05:43:15.258Z,25.17
2023-02-15T05:45:53.980Z,23.88
2023-02-15T05:48:25.570Z,24.20
2023-02-15T05:50:59.439Z,24.48
2023-02-15T05:53:28.112Z,27.20
2023-02-15T05:56:01.463Z,25.63
2023-02-15T05:58:33.038Z,23.90
2023-02-15T06:01:01.275Z,20.98
2023-02-15T06:03:36.971Z,20.50
2023-02-15T06:06:05.595Z,19.35
2023-02-15T06:08:34.029Z,18.52
2023-02-15T06:11:02.451Z,18.90
2023-02-15T06:13:32.294Z,21.10
2023-02-15T06:16:00.968Z,19.08
2023-02-15T06:18:29.532Z,18.93
2023-02-15T06:21:02.243Z,23.15
2023-02-15T06:23:32.643Z,21.08
2023-02-15T06:26:01.320Z,20.48
2023-02-15T06:28:29.764Z,19.33
2023-02-15T06:30:59.450Z,20.02
2023-02-15T06:33:34.697Z,16.35
2023-02-15T06:36:04.955Z,18.58
2023-02-15T06:38:33.404Z,20.38
2023-02-15T06:41:01.724Z,20.23
2023-02-15T06:43:35.215Z,22.40
2023-02-15T06:46:05.412Z,22.13
2023-02-15T06:48:33.786Z,20.02
2023-02-15T06:51:02.240Z,18.70
2023-02-15T06:53:30.691Z,23.00
2023-02-15T06:56:03.921Z,23.83
2023-02-15T06:58:32.374Z,17.67
2023-02-15T07:01:00.584Z,34.90
2023-02-15T07:03:30.236Z,35.67
2023-02-15T07:06:01.661Z,31.05
2023-02-15T07:08:30.600Z,31.10
2023-02-15T07:11:19.511Z,29.25
2023-02-15T07:13:47.066Z,26.90
2023-02-15T07:16:17.987Z,28.15
2023-02-15T07:18:48.386Z,28.23
2023-02-15T07:21:16.715Z,24.63
2023-02-15T07:23:45.015Z,22.77
2023-02-15T07:26:13.659Z,27.40
2023-02-15T07:28:41.942Z,26.52
2023-02-15T07:31:10.517Z,26.80
2023-02-15T07:33:45.703Z,29.40
2023-02-15T07:36:15.577Z,29.08
2023-02-15T07:38:44.550Z,25.02
2023-02-15T07:41:13.808Z,27.67
2023-02-15T07:43:43.631Z,30.45
2023-02-15T07:46:13.654Z,30.52
2023-02-15T07:48:42.379Z,29.35
2023-02-15T07:51:11.968Z,26.95
2023-02-15T07:53:44.072Z,26.08
2023-02-15T07:56:18.176Z,31.00
2023-02-15T07:58:52.990Z,27.83
2023-02-15T08:01:22.171Z,36.33
2023-02-15T08:03:50.894Z,30.13
2023-02-15T08:06:21.770Z,37.55
2023-02-15T08:08:51.521Z,32.13
2023-02-15T08:11:38.446Z,31.13
2023-02-15T08:14:08.169Z,32.25
2023-02-15T08:16:37.555Z,33.00
2023-02-15T08:19:09.060Z,33.22
2023-02-15T08:21:38.202Z,35.42
2023-02-15T08:24:15.830Z,31.85
2023-02-15T08:26:46.012Z,35.50
2023-02-15T08:29:14.868Z,35.03
2023-02-15T08:31:43.956Z,38.10
2023-02-15T08:34:19.867Z,34.03
2023-02-15T08:36:56.658Z,36.60
2023-02-15T08:39:26.496Z,35.63
2023-02-15T08:41:54.884Z,39.88
2023-02-15T08:44:23.503Z,41.05
2023-02-15T08:46:52.157Z,45.55
2023-02-15T08:49:21.946Z,42.60
2023-02-15T08:51:51.309Z,44.08
2023-02-15T08:54:23.633Z,38.03
2023-02-15T08:56:53.309Z,40.88
2023-02-15T08:59:27.993Z,42.35
2023-02-15T09:01:56.722Z,40.08
2023-02-15T09:04:29.794Z,39.88
2023-02-15T09:07:00.452Z,40.38
2023-02-15T09:09:28.906Z,46.90
2023-02-15T09:11:59.658Z,40.22
2023-02-15T09:14:28.068Z,41.05
2023-02-15T09:16:59.154Z,47.00
2023-02-15T09:19:27.696Z,47.22
2023-02-15T09:21:56.480Z,41.08
2023-02-15T09:24:25.217Z,45.78
2023-02-15T09:26:53.520Z,47.63
2023-02-15T09:29:23.686Z,51.35
2023-02-15T09:31:54.494Z,47.70
2023-02-15T09:34:24.148Z,48.00
2023-02-15T09:36:53.101Z,45.83
2023-02-15T09:39:22.253Z,49.70
2023-02-15T09:42:22.162Z,47.92
2023-02-15T09:45:01.144Z,51.20
2023-02-15T09:47:39.735Z,50.58
2023-02-15T09:50:14.698Z,54.40
2023-02-15T09:52:51.673Z,49.25
2023-02-15T09:55:36.562Z,48.20
2023-02-15T09:58:08.574Z,45.92
2023-02-15T10:00:43.655Z,48.22
2023-02-15T10:03:18.621Z,54.28
2023-02-15T10:05:54.047Z,47.25
2023-02-15T10:08:34.700Z,46.70
2023-02-15T10:11:22.508Z,46.78
2023-02-15T10:13:57.415Z,49.70
2023-02-15T10:16:29.511Z,45.72
2023-02-15T10:19:01.253Z,55.55
2023-02-15T10:21:41.358Z,51.58
2023-02-15T10:24:17.907Z,45.70
2023-02-15T10:26:50.195Z,59.88
2023-02-15T10:29:23.723Z,46.78
2023-02-15T10:31:54.955Z,46.08
2023-02-15T10:34:28.924Z,52.10
2023-02-15T10:37:17.504Z,45.10
2023-02-15T10:39:53.926Z,49.38
2023-02-15T10:42:27.498Z,51.10
2023-02-15T10:45:05.025Z,50.95
2023-02-15T10:47:45.352Z,49.70
2023-02-15T10:50:20.220Z,45.75
2023-02-15T10:52:56.755Z,45.35
2023-02-15T10:55:28.692Z,49.78
2023-02-15T10:58:06.922Z,45.22
2023-02-15T11:00:40.199Z,46.90
2023-02-15T11:03:19.620Z,47.50
2023-02-15T11:05:55.861Z,48.85
2023-02-15T11:08:26.388Z,45.72
2023-02-15T11:10:59.298Z,46.70
2023-02-15T11:13:29.695Z,42.75
2023-02-15T11:16:00.309Z,43.92
2023-02-15T11:18:31.879Z,46.08
2023-02-15T11:21:03.055Z,47.10
2023-02-15T11:23:31.654Z,43.90
2023-02-15T11:26:01.280Z,47.88
2023-02-15T11:28:32.993Z,46.42
2023-02-15T11:31:04.933Z,43.88
2023-02-15T11:33:37.902Z,47.72
2023-02-15T11:36:08.456Z,47.10
2023-02-15T11:38:40.615Z,45.47
2023-02-15T11:41:12.581Z,48.45
2023-02-15T11:43:42.166Z,49.58
2023-02-15T11:46:12.493Z,48.20
2023-02-15T11:48:44.758Z,44.30
2023-02-15T11:51:18.763Z,50.33
2023-02-15T11:53:50.331Z,45.42
2023-02-15T11:56:19.679Z,45.50
2023-02-15T11:58:50.678Z,46.35
2023-02-15T12:01:20.931Z,44.13
2023-02-15T12:03:51.563Z,43.80
2023-02-15T12:06:23.309Z,45.33
2023-02-15T12:08:56.691Z,44.33
2023-02-15T12:11:28.390Z,44.50
2023-02-15T12:13:57.930Z,42.90
2023-02-15T12:16:26.469Z,46.95
2023-02-15T12:19:00.338Z,42.50
2023-02-15T12:21:33.153Z,39.35
2023-02-15T12:24:07.766Z,51.55
2023-02-15T12:26:40.021Z,42.10
2023-02-15T12:29:10.157Z,41.03
2023-02-15T12:31:42.241Z,37.83
2023-02-15T12:34:15.544Z,40.92
2023-02-15T12:36:47.942Z,40.15
2023-02-15T12:39:21.680Z,41.78
2023-02-15T12:42:00.298Z,38.83
2023-02-15T12:44:30.054Z,41.53
2023-02-15T12:46:59.709Z,42.67
2023-02-15T12:49:29.569Z,40.78
2023-02-15T12:51:59.398Z,42.47
2023-02-15T12:54:31.586Z,39.80
2023-02-15T12:57:00.476Z,40.28
2023-02-15T12:59:28.732Z,44.78
2023-02-15T13:01:57.487Z,40.75
2023-02-15T13:04:27.541Z,39.17
2023-02-15T13:06:58.663Z,35.95
2023-02-15T13:09:37.728Z,40.13
2023-02-15T13:12:13.845Z,39.58
2023-02-15T13:14:48.359Z,40.17
2023-02-15T13:17:18.811Z,39.67
2023-02-15T13:19:48.558Z,42.28
2023-02-15T13:22:19.474Z,37.03
2023-02-15T13:24:49.721Z,38.28
2023-02-15T13:27:19.620Z,39.72
2023-02-15T13:29:49.872Z,42.13
2023-02-15T13:32:28.188Z,41.10
2023-02-15T13:34:57.864Z,38.33
2023-02-15T13:37:38.602Z,41.88
2023-02-15T13:40:11.541Z,36.30
2023-02-15T13:42:42.323Z,43.28
2023-02-15T13:45:16.613Z,35.22
2023-02-15T13:47:49.261Z,37.65
2023-02-15T13:50:25.681Z,37.42
2023-02-15T13:52:59.840Z,37.63
2023-02-15T13:55:32.380Z,35.22
2023-02-15T13:58:17.207Z,32.65
2023-02-15T14:00:54.366Z,34.90
2023-02-15T14:03:43.244Z,36.00
2023-02-15T14:06:22.608Z,33.17
2023-02-15T14:09:00.069Z,37.58
2023-02-15T14:11:32.622Z,32.08
2023-02-15T14:14:09.783Z,36.40
2023-02-15T14:16:42.042Z,32.78
2023-02-15T14:19:16.043Z,44.65
2023-02-15T14:21:46.574Z,33.10
2023-02-15T14:24:20.723Z,34.33
2023-02-15T14:26:53.316Z,39.58
2023-02-15T14:29:26.899Z,36.25
2023-02-15T14:32:01.466Z,36.97
2023-02-15T14:34:47.002Z,34.97
2023-02-15T14:37:18.938Z,40.10
2023-02-15T14:40:12.424Z,36.47
2023-02-15T14:42:46.868Z,35.10
2023-02-15T14:45:21.295Z,36.15
2023-02-15T14:47:51.730Z,41.33
2023-02-15T14:50:45.289Z,39.30
2023-02-15T14:53:36.797Z,37.42
2023-02-15T14:56:22.840Z,36.35
2023-02-15T14:59:17.996Z,39.13
2023-02-15T15:01:54.038Z,38.08
2023-02-15T15:04:28.636Z,35.22
2023-02-15T15:07:07.862Z,37.72
2023-02-15T15:09:37.475Z,40.47
2023-02-15T15:12:39.521Z,42.38
2023-02-15T15:15:11.988Z,41.47
2023-02-15T15:17:54.838Z,39.30
2023-02-15T15:20:38.132Z,41.83
2023-02-15T15:23:31.632Z,35.30
2023-02-15T15:26:01.001Z,34.35
2023-02-15T15:28:48.140Z,37.45
2023-02-15T15:31:23.799Z,39.70
2023-02-15T15:34:18.808Z,38.67
2023-02-15T15:36:59.430Z,40.95
2023-02-15T15:39:41.546Z,38.75
2023-02-15T15:42:14.860Z,38.90
2023-02-15T15:45:04.176Z,36.03
2023-02-15T15:47:43.026Z,39.17
2023-02-15T15:50:15.283Z,39.65
2023-02-15T15:52:46.200Z,38.35
2023-02-15T15:55:20.543Z,40.90
2023-02-15T15:57:55.279Z,40.38
2023-02-15T16:00:33.059Z,43.30
2023-02-15T16:03:05.326Z,44.22
2023-02-15T16:05:39.902Z,37.78
2023-02-15T16:08:08.706Z,41.95
2023-02-15T16:10:38.901Z,43.17
2023-02-15T16:13:08.761Z,42.67
2023-02-15T16:15:39.668Z,43.30
2023-02-15T16:18:16.543Z,43.95
2023-02-15T16:20:53.928Z,41.92
2023-02-15T16:23:35.053Z,43.20
2023-02-15T16:26:08.331Z,46.47
2023-02-15T16:28:36.673Z,41.08
2023-02-15T16:31:11.893Z,44.60
2023-02-15T16:33:46.378Z,39.92
2023-02-15T16:36:15.904Z,41.03
2023-02-15T16:39:08.621Z,43.30
2023-02-15T16:41:44.833Z,44.15
2023-02-15T16:44:17.088Z,46.70
2023-02-15T16:46:51.151Z,43.50
2023-02-15T16:49:21.964Z,45.10
2023-02-15T16:51:57.482Z,44.88
2023-02-15T16:54:28.814Z,45.42
2023-02-15T16:56:57.350Z,45.33
2023-02-15T16:59:36.034Z,45.90
2023-02-15T17:02:06.991Z,48.83
2023-02-15T17:04:39.124Z,41.53
2023-02-15T17:07:08.407Z,47.17
2023-02-15T17:09:36.755Z,44.58
2023-02-15T17:12:08.531Z,47.03
2023-02-15T17:14:41.208Z,48.10
2023-02-15T17:17:10.642Z,45.97
2023-02-15T17:19:50.596Z,41.55
2023-02-15T17:22:27.873Z,46.25
2023-02-15T17:25:05.536Z,44.58
2023-02-15T17:27:35.997Z,45.15
2023-02-15T17:30:06.101Z,45.20
2023-02-15T17:32:37.232Z,45.17
2023-02-15T17:35:11.572Z,44.33
2023-02-15T17:37:47.477Z,46.53
2023-02-15T17:40:30.587Z,48.38
2023-02-15T17:42:59.121Z,64.68
2023-02-15T17:45:31.078Z,44.85
2023-02-15T17:48:00.228Z,48.58
2023-02-15T17:50:32.572Z,44.03
2023-02-15T17:53:02.513Z,48.15
2023-02-15T17:55:36.555Z,43.78
2023-02-15T17:58:05.746Z,42.97
2023-02-15T18:00:52.090Z,46.15
2023-02-15T18:03:41.107Z,43.63
2023-02-15T18:06:28.665Z,43.78
2023-02-15T18:09:14.618Z,44.55
2023-02-15T18:11:48.512Z,44.15
2023-02-15T18:14:16.767Z,48.58
2023-02-15T18:16:48.498Z,43.53
2023-02-15T18:19:21.230Z,45.38
2023-02-15T18:21:55.687Z,43.97
2023-02-15T18:24:25.332Z,43.03
2023-02-15T18:26:53.873Z,42.17
2023-02-15T18:29:24.770Z,43.22
2023-02-15T18:31:54.778Z,43.88
2023-02-15T18:34:25.619Z,45.75
2023-02-15T18:36:55.663Z,43.90
2023-02-15T18:39:31.082Z,44.42
2023-02-15T18:41:59.564Z,43.75
2023-02-15T18:44:28.074Z,43.00
2023-02-15T18:46:58.714Z,39.85
2023-02-15T18:49:27.105Z,53.03
2023-02-15T18:51:56.890Z,39.00
2023-02-15T18:54:26.417Z,41.13
2023-02-15T18:56:56.862Z,39.03
2023-02-15T18:59:25.527Z,39.30
2023-02-15T19:01:54.320Z,37.55
2023-02-15T19:04:26.000Z,41.10
2023-02-15T19:06:54.661Z,44.65
2023-02-15T19:09:26.257Z,39.78
2023-02-15T19:11:55.827Z,37.72
2023-02-15T19:14:28.347Z,42.03
2023-02-15T19:16:57.038Z,39.05
2023-02-15T19:19:28.010Z,47.15
2023-02-15T19:22:00.113Z,39.03
2023-02-15T19:24:33.487Z,40.95
2023-02-15T19:27:02.707Z,42.13
2023-02-15T19:29:32.082Z,45.85
2023-02-15T19:32:00.498Z,44.50
2023-02-15T19:34:30.705Z,42.35
2023-02-15T19:37:00.283Z,41.22
2023-02-15T19:39:34.700Z,44.20
2023-02-15T19:42:09.759Z,43.70
2023-02-15T19:44:43.814Z,40.95
2023-02-15T19:47:16.305Z,45.53
2023-02-15T19:49:44.861Z,38.83
2023-02-15T19:52:18.329Z,41.90
2023-02-15T19:54:48.105Z,40.90
2023-02-15T19:57:17.195Z,38.65
2023-02-15T19:59:45.852Z,46.15
2023-02-15T20:02:20.166Z,41.92
2023-02-15T20:04:48.797Z,47.00
2023-02-15T20:07:22.064Z,39.15
2023-02-15T20:09:59.012Z,45.40
2023-02-15T20:12:29.476Z,44.78
2023-02-15T20:14:58.484Z,44.67
2023-02-15T20:17:28.989Z,36.95
2023-02-15T20:20:02.193Z,41.17
2023-02-15T20:22:31.303Z,42.75
2023-02-15T20:25:03.511Z,38.75
2023-02-15T20:27:37.851Z,42.65
2023-02-15T20:30:11.102Z,38.45
2023-02-15T20:32:44.174Z,35.85
2023-02-15T20:35:16.891Z,40.65
2023-02-15T20:37:45.741Z,38.97
2023-02-15T20:40:20.494Z,40.05
2023-02-15T20:42:49.151Z,48.42
2023-02-15T20:45:18.678Z,44.03
2023-02-15T20:47:48.642Z,45.42
2023-02-15T20:50:18.329Z,38.55
2023-02-15T20:52:46.902Z,38.22
2023-02-15T20:55:20.748Z,42.70
2023-02-15T20:57:49.886Z,38.38
2023-02-15T21:00:20.583Z,37.35
2023-02-15T21:02:50.061Z,43.80
2023-02-15T21:05:19.414Z,36.80
2023-02-15T21:07:49.994Z,41.10
2023-02-15T21:10:21.017Z,39.80
2023-02-15T21:12:49.761Z,40.17
2023-02-15T21:15:35.017Z,37.75
2023-02-15T21:18:06.384Z,41.85
2023-02-15T21:20:35.454Z,37.00
2023-02-15T21:23:05.516Z,39.40
2023-02-15T21:25:39.227Z,40.03
2023-02-15T21:28:10.286Z,39.58
2023-02-15T21:30:38.611Z,37.13
2023-02-15T21:33:06.933Z,36.22
2023-02-15T21:35:41.841Z,37.65
2023-02-15T21:38:17.373Z,35.75
2023-02-15T21:40:47.092Z,34.75
2023-02-15T21:43:33.948Z,40.10
2023-02-15T21:46:30.547Z,40.65
2023-02-15T21:48:58.962Z,40.33
2023-02-15T21:51:45.207Z,37.30
2023-02-15T21:54:18.659Z,35.78
2023-02-15T21:56:50.950Z,40.10
2023-02-15T21:59:19.748Z,40.97
2023-02-15T22:01:49.915Z,36.28
2023-02-15T22:04:23.116Z,43.90
2023-02-15T22:06:54.075Z,40.35
2023-02-15T22:09:23.414Z,38.50
2023-02-15T22:11:53.515Z,41.60
2023-02-15T22:14:45.615Z,42.85
2023-02-15T22:17:16.433Z,37.80
2023-02-15T22:19:45.684Z,42.75
2023-02-15T22:22:14.808Z,40.83
2023-02-15T22:24:45.725Z,38.20
2023-02-15T22:27:19.463Z,40.53
2023-02-15T22:29:48.756Z,42.70
2023-02-15T22:32:19.046Z,38.83
2023-02-15T22:34:52.078Z,37.53
2023-02-15T22:37:20.591Z,42.38
2023-02-15T22:39:48.870Z,40.83
2023-02-15T22:42:21.829Z,36.63
2023-02-15T22:44:50.221Z,38.28
2023-02-15T22:47:26.059Z,43.95
2023-02-15T22:49:54.606Z,43.70
2023-02-15T22:52:27.888Z,42.47
2023-02-15T22:54:56.190Z,42.20
2023-02-15T22:57:30.140Z,46.95
2023-02-15T23:00:01.639Z,42.38
2023-02-15T23:02:32.309Z,46.47
2023-02-15T23:05:00.637Z,47.67
2023-02-15T23:07:29.638Z,40.65
2023-02-15T23:09:58.333Z,44.08
2023-02-15T23:12:28.782Z,44.95
2023-02-15T23:14:57.513Z,41.22
2023-02-15T23:17:28.205Z,46.70
2023-02-15T23:20:03.817Z,45.92
2023-02-15T23:22:32.127Z,49.38
2023-02-15T23:25:04.966Z,41.83
2023-02-15T23:27:54.822Z,45.55
2023-02-15T23:30:28.167Z,48.35
2023-02-15T23:32:57.419Z,44.60
2023-02-15T23:35:25.921Z,45.17
2023-02-15T23:37:54.286Z,52.00
2023-02-15T23:40:40.761Z,46.08
2023-02-15T23:43:17.979Z,49.92
2023-02-15T23:45:48.969Z,45.92
2023-02-15T23:48:33.476Z,44.08
2023-02-15T23:51:06.600Z,55.10
2023-02-15T23:53:35.136Z,50.53
2023-02-15T23:56:03.722Z,45.53
2023-02-15T23:58:38.189Z,48.03
